Madoc, Canada
Current Conditions -  °F | °C
As of 11:00 AM on Tuesday 27 Jan 2015 (Local Time) from CYTR Reporting Station
Scattered Clouds Scattered Clouds  
Wind Chill: -5°   Ceiling: Unl
Heat Index: 12°   Visibility: 15mi
Dew Point: -8°   Wind: 17mph
Humidity: 41%   Direction: 20°NNE
Pressure: 30.06"   Gusts: NA
Location:  44.52°N, 77.48°W
Report Text: CYTR 271600Z 02015KT 15SM FEW090 SCT120 SCT250 M11/M22 A3006 RMK AC1AC2CI0 SLP189
Loading
Personal Weather Stations






























Interactive Weather Map New forecast layout! Learn more

10-Day Weather Forecast

Advertisements
Track Severe Weather on mobile